Terminal Aerodrome Forecast
Issued by NWS Greer, SC

Home | Current Version | Previous Version | Text Only | Print | Product List | Glossary On
Versions: 1 2 3 4 5 6 7 8 9 10 11 12 13 14 15 16 17 18 19 20 21 22 23 24 25 26 27 28 29 30 31 32 33 34 35 36 37 38 39
838
FTUS42 KGSP 231957 AAB
TAFGSP
TAF AMD
KGSP 231957Z 2320/2418 25008KT P6SM VCSH SCT025 OVC035
     FM232200 30011G18KT P6SM SCT025 BKN040
     FM240000 31010KT P6SM BKN045
     FM240300 30010KT P6SM SCT050
     FM240800 28007KT P6SM FEW200=

USA.gov is the U.S. government's official web portal to all federal, state and local government web resources and services.